Time,TemperatureF,DewpointF,PressureIn,WindDirection,WindDirectionDegrees,WindSpeedMPH,WindSpeedGustMPH,Humidity,HourlyPrecipIn,Conditions,Clouds,dailyrainin,SoftwareType,DateUTC
2013-08-23 00:11:00,67.3,66.7,30.09,SSE,157,0.0,-999.0,98,-99.99,,,0.00,Acu-Link.com,2013-08-23 05:11:00,
2013-08-23 00:26:00,66.7,66.1,30.08,ESE,112,0.0,-999.0,98,-99.99,,,0.00,Acu-Link.com,2013-08-23 05:26:00,
2013-08-23 00:41:00,66.6,66.0,30.08,ESE,112,0.0,-999.0,98,-99.99,,,0.00,Acu-Link.com,2013-08-23 05:41:00,
2013-08-23 00:56:00,66.7,66.1,30.08,ESE,112,0.0,-999.0,98,-99.99,,,0.00,Acu-Link.com,2013-08-23 05:56:00,
2013-08-23 01:11:00,66.7,66.1,30.09,ESE,112,0.0,-999.0,98,-99.99,,,0.00,Acu-Link.com,2013-08-23 06:11:00,
2013-08-23 01:27:00,66.6,66.0,30.08,ESE,112,0.0,-999.0,98,-99.99,,,0.00,Acu-Link.com,2013-08-23 06:27:00,
2013-08-23 01:42:00,65.8,65.2,30.08,ESE,112,0.0,-999.0,98,-99.99,,,0.00,Acu-Link.com,2013-08-23 06:42:00,
2013-08-23 01:57:00,65.3,64.7,30.08,ESE,112,0.0,-999.0,98,-99.99,,,0.00,Acu-Link.com,2013-08-23 06:57:00,
2013-08-23 02:13:00,64.9,64.3,30.08,ESE,112,0.0,-999.0,98,-99.99,,,0.00,Acu-Link.com,2013-08-23 07:13:00,
2013-08-23 02:28:00,65.1,64.5,30.08,ESE,112,0.0,-999.0,98,-99.99,,,0.00,Acu-Link.com,2013-08-23 07:28:00,
2013-08-23 02:43:00,64.9,64.3,30.08,ESE,112,0.0,-999.0,98,-99.99,,,0.00,Acu-Link.com,2013-08-23 07:43:00,
2013-08-23 02:59:00,64.8,64.2,30.08,ESE,112,0.0,-999.0,98,-99.99,,,0.00,Acu-Link.com,2013-08-23 07:59:00,
2013-08-23 03:14:00,64.9,64.3,30.08,ESE,112,0.0,-999.0,98,-99.99,,,0.00,Acu-Link.com,2013-08-23 08:14:00,
2013-08-23 03:30:00,64.8,64.2,30.08,ESE,112,0.0,-999.0,98,-99.99,,,0.00,Acu-Link.com,2013-08-23 08:30:00,
2013-08-23 03:45:00,64.6,64.0,30.08,ESE,112,0.0,-999.0,98,-99.99,,,0.00,Acu-Link.com,2013-08-23 08:45:00,
2013-08-23 04:00:00,64.0,63.4,30.09,ESE,112,0.0,-999.0,98,-99.99,,,0.00,Acu-Link.com,2013-08-23 09:00:00,
2013-08-23 04:16:00,63.3,62.7,30.09,North,0,0.0,-999.0,98,-99.99,,,0.00,Acu-Link.com,2013-08-23 09:16:00,
2013-08-23 04:31:00,63.1,62.5,30.10,NW,315,0.0,-999.0,98,-99.99,,,0.00,Acu-Link.com,2013-08-23 09:31:00,
2013-08-23 04:46:00,63.1,62.5,30.09,NE,45,0.0,-999.0,98,-99.99,,,0.00,Acu-Link.com,2013-08-23 09:46:00,
2013-08-23 05:01:00,63.1,62.5,30.10,NE,45,0.0,-999.0,98,-99.99,,,0.00,Acu-Link.com,2013-08-23 10:01:00,
2013-08-23 05:16:00,63.1,62.5,30.10,NE,45,0.0,-999.0,98,-99.99,,,0.00,Acu-Link.com,2013-08-23 10:16:00,
2013-08-23 05:31:00,63.1,62.5,30.11,NE,45,0.0,-999.0,98,-99.99,,,0.00,Acu-Link.com,2013-08-23 10:31:00,
2013-08-23 05:47:00,63.1,62.5,30.12,ENE,67,0.0,-999.0,98,-99.99,,,0.00,Acu-Link.com,2013-08-23 10:47:00,
2013-08-23 06:02:00,63.1,62.5,30.12,ENE,67,0.0,-999.0,98,-99.99,,,0.00,Acu-Link.com,2013-08-23 11:02:00,
2013-08-23 06:17:00,63.0,62.4,30.12,NE,45,0.0,-999.0,98,-99.99,,,0.00,Acu-Link.com,2013-08-23 11:17:00,
2013-08-23 06:32:00,63.0,62.4,30.11,NE,45,0.0,-999.0,98,-99.99,,,0.00,Acu-Link.com,2013-08-23 11:32:00,
2013-08-23 06:48:00,63.0,62.4,30.12,NE,45,0.0,-999.0,98,-99.99,,,0.00,Acu-Link.com,2013-08-23 11:48:00,
2013-08-23 07:03:00,64.0,63.4,30.12,East,90,0.0,-999.0,98,-99.99,,,0.00,Acu-Link.com,2013-08-23 12:03:00,
2013-08-23 07:18:00,64.0,63.4,30.13,East,90,0.0,-999.0,98,-99.99,,,0.00,Acu-Link.com,2013-08-23 12:18:00,
2013-08-23 07:34:00,64.6,64.0,30.13,East,90,0.0,-999.0,98,-99.99,,,0.00,Acu-Link.com,2013-08-23 12:34:00,
2013-08-23 07:49:00,65.5,64.9,30.12,ENE,67,0.0,-999.0,98,-99.99,,,0.00,Acu-Link.com,2013-08-23 12:49:00,
2013-08-23 08:04:00,67.3,66.7,30.13,East,90,0.0,-999.0,98,-99.99,,,0.00,Acu-Link.com,2013-08-23 13:04:00,
2013-08-23 08:20:00,67.5,66.9,30.13,ENE,67,0.0,-999.0,98,-99.99,,,0.00,Acu-Link.com,2013-08-23 13:20:00,
2013-08-23 08:35:00,69.1,68.5,30.14,ESE,112,0.0,-999.0,98,-99.99,,,0.00,Acu-Link.com,2013-08-23 13:35:00,
2013-08-23 08:50:00,70.2,69.6,30.13,ESE,112,0.0,-999.0,98,-99.99,,,0.00,Acu-Link.com,2013-08-23 13:50:00,
2013-08-23 09:05:00,71.1,67.4,30.13,East,90,0.0,-999.0,88,-99.99,,,0.00,Acu-Link.com,2013-08-23 14:05:00,
2013-08-23 09:21:00,71.4,67.0,30.13,ENE,67,0.0,-999.0,86,-99.99,,,0.00,Acu-Link.com,2013-08-23 14:21:00,
2013-08-23 09:36:00,72.1,67.3,30.13,ESE,112,1.1,-999.0,85,-99.99,,,0.00,Acu-Link.com,2013-08-23 14:36:00,
2013-08-23 09:51:00,73.9,67.7,30.14,East,90,6.3,-999.0,81,-99.99,,,0.00,Acu-Link.com,2013-08-23 14:51:00,
2013-08-23 10:06:00,74.1,67.9,30.14,East,90,3.2,-999.0,81,-99.99,,,0.00,Acu-Link.com,2013-08-23 15:06:00,
2013-08-23 10:21:00,75.2,68.2,30.14,ENE,67,2.7,-999.0,79,-99.99,,,0.00,Acu-Link.com,2013-08-23 15:21:00,
2013-08-23 10:37:00,75.9,67.8,30.14,ENE,67,0.0,-999.0,76,-99.99,,,0.00,Acu-Link.com,2013-08-23 15:37:00,
2013-08-23 10:52:00,77.7,67.9,30.14,ESE,112,0.0,-999.0,72,-99.99,,,0.00,Acu-Link.com,2013-08-23 15:52:00,
2013-08-23 11:07:00,78.8,67.3,30.14,ESE,112,0.0,-999.0,68,-99.99,,,0.00,Acu-Link.com,2013-08-23 16:07:00,
2013-08-23 11:22:00,79.2,66.4,30.13,East,90,2.7,-999.0,65,-99.99,,,0.00,Acu-Link.com,2013-08-23 16:22:00,
2013-08-23 11:37:00,80.2,65.5,30.13,SE,135,1.7,-999.0,61,-99.99,,,0.00,Acu-Link.com,2013-08-23 16:37:00,
2013-08-23 11:53:00,79.9,63.8,30.13,South,180,1.7,-999.0,58,-99.99,,,0.00,Acu-Link.com,2013-08-23 16:53:00,
2013-08-23 12:08:00,81.3,63.0,30.12,SE,135,0.0,-999.0,54,-99.99,,,0.00,Acu-Link.com,2013-08-23 17:08:00,
2013-08-23 12:23:00,81.0,62.2,30.13,ESE,112,0.0,-999.0,53,-99.99,,,0.00,Acu-Link.com,2013-08-23 17:23:00,
2013-08-23 12:38:00,82.0,62.6,30.12,ENE,67,4.7,-999.0,52,-99.99,,,0.00,Acu-Link.com,2013-08-23 17:38:00,
2013-08-23 12:53:00,81.5,62.7,30.12,SSW,202,0.0,-999.0,53,-99.99,,,0.00,Acu-Link.com,2013-08-23 17:53:00,
2013-08-23 13:09:00,81.9,63.6,30.12,ESE,112,5.3,-999.0,54,-99.99,,,0.00,Acu-Link.com,2013-08-23 18:09:00,
2013-08-23 13:24:00,82.4,63.0,30.12,SSE,157,2.7,-999.0,52,-99.99,,,0.00,Acu-Link.com,2013-08-23 18:24:00,
2013-08-23 13:39:00,82.6,61.5,30.12,SE,135,4.2,-999.0,49,-99.99,,,0.00,Acu-Link.com,2013-08-23 18:39:00,
2013-08-23 13:55:00,82.8,62.2,30.12,ESE,112,0.0,-999.0,50,-99.99,,,0.00,Acu-Link.com,2013-08-23 18:55:00,
2013-08-23 14:10:00,83.5,61.1,30.12,NE,45,3.7,-999.0,47,-99.99,,,0.00,Acu-Link.com,2013-08-23 19:10:00,
2013-08-23 14:25:00,83.7,61.3,30.11,South,180,0.0,-999.0,47,-99.99,,,0.00,Acu-Link.com,2013-08-23 19:25:00,
2013-08-23 14:40:00,83.1,60.8,30.11,SE,135,0.0,-999.0,47,-99.99,,,0.00,Acu-Link.com,2013-08-23 19:40:00,
2013-08-23 14:55:00,84.2,60.5,30.11,SSE,157,0.0,-999.0,45,-99.99,,,0.00,Acu-Link.com,2013-08-23 19:55:00,
2013-08-23 15:11:00,84.7,59.7,30.10,SSE,157,0.0,-999.0,43,-99.99,,,0.00,Acu-Link.com,2013-08-23 20:11:00,
2013-08-23 15:26:00,84.2,55.8,30.11,SSW,202,2.7,-999.0,38,-99.99,,,0.00,Acu-Link.com,2013-08-23 20:26:00,
2013-08-23 15:41:00,84.0,55.6,30.11,SSW,202,0.0,-999.0,38,-99.99,,,0.00,Acu-Link.com,2013-08-23 20:41:00,
2013-08-23 15:56:00,85.1,58.0,30.11,SE,135,3.7,-999.0,40,-99.99,,,0.00,Acu-Link.com,2013-08-23 20:56:00,
2013-08-23 16:11:00,84.7,56.3,30.10,NE,45,5.3,-999.0,38,-99.99,,,0.00,Acu-Link.com,2013-08-23 21:11:00,
2013-08-23 16:26:00,84.6,57.6,30.10,SSE,157,0.0,-999.0,40,-99.99,,,0.00,Acu-Link.com,2013-08-23 21:26:00,
2013-08-23 16:42:00,86.0,56.7,30.10,SSW,202,0.0,-999.0,37,-99.99,,,0.00,Acu-Link.com,2013-08-23 21:42:00,
2013-08-23 16:57:00,85.5,57.7,30.09,East,90,4.2,-999.0,39,-99.99,,,0.00,Acu-Link.com,2013-08-23 21:57:00,
2013-08-23 17:12:00,84.9,58.5,30.09,South,180,0.0,-999.0,41,-99.99,,,0.00,Acu-Link.com,2013-08-23 22:12:00,
2013-08-23 17:28:00,85.1,57.3,30.10,South,180,3.7,-999.0,39,-99.99,,,0.00,Acu-Link.com,2013-08-23 22:28:00,
2013-08-23 17:43:00,86.2,58.3,30.10,South,180,0.0,-999.0,39,-99.99,,,0.00,Acu-Link.com,2013-08-23 22:43:00,
2013-08-23 17:58:00,87.4,58.6,30.09,SSE,157,0.0,-999.0,38,-99.99,,,0.00,Acu-Link.com,2013-08-23 22:58:00,
2013-08-23 18:14:00,86.9,58.2,30.10,SSE,157,0.0,-999.0,38,-99.99,,,0.00,Acu-Link.com,2013-08-23 23:14:00,
2013-08-23 18:29:00,86.0,58.8,30.09,SE,135,0.0,-999.0,40,-99.99,,,0.00,Acu-Link.com,2013-08-23 23:29:00,
2013-08-23 18:44:00,84.4,57.4,30.09,SE,135,0.0,-999.0,40,-99.99,,,0.00,Acu-Link.com,2013-08-23 23:44:00,
2013-08-23 19:00:00,83.3,57.8,30.09,SSE,157,0.0,-999.0,42,-99.99,,,0.00,Acu-Link.com,2013-08-24 00:00:00,
2013-08-23 19:15:00,82.6,58.5,30.09,SSE,157,0.0,-999.0,44,-99.99,,,0.00,Acu-Link.com,2013-08-24 00:15:00,
2013-08-23 19:30:00,81.1,58.9,30.09,SSE,157,0.0,-999.0,47,-99.99,,,0.00,Acu-Link.com,2013-08-24 00:30:00,
2013-08-23 19:46:00,79.3,59.6,30.09,SSE,157,0.0,-999.0,51,-99.99,,,0.00,Acu-Link.com,2013-08-24 00:46:00,
2013-08-23 20:01:00,77.9,59.9,30.10,East,90,0.0,-999.0,54,-99.99,,,0.00,Acu-Link.com,2013-08-24 01:01:00,
2013-08-23 20:16:00,75.9,61.0,30.10,East,90,0.0,-999.0,60,-99.99,,,0.00,Acu-Link.com,2013-08-24 01:16:00,
2013-08-23 20:31:00,74.8,61.3,30.10,East,90,0.0,-999.0,63,-99.99,,,0.00,Acu-Link.com,2013-08-24 01:31:00,
2013-08-23 20:46:00,74.1,62.0,30.11,East,90,0.0,-999.0,66,-99.99,,,0.00,Acu-Link.com,2013-08-24 01:46:00,
2013-08-23 21:01:00,73.2,62.4,30.12,East,90,0.0,-999.0,69,-99.99,,,0.00,Acu-Link.com,2013-08-24 02:01:00,
2013-08-23 21:17:00,72.5,62.5,30.12,ESE,112,0.0,-999.0,71,-99.99,,,0.00,Acu-Link.com,2013-08-24 02:17:00,
2013-08-23 21:32:00,72.5,62.1,30.12,SSE,157,0.0,-999.0,70,-99.99,,,0.00,Acu-Link.com,2013-08-24 02:32:00,
2013-08-23 21:47:00,72.9,61.3,30.12,ESE,112,0.0,-999.0,67,-99.99,,,0.00,Acu-Link.com,2013-08-24 02:47:00,
2013-08-23 22:03:00,72.9,60.4,30.12,SSE,157,0.0,-999.0,65,-99.99,,,0.00,Acu-Link.com,2013-08-24 03:03:00,
2013-08-23 22:18:00,72.7,59.8,30.12,SE,135,0.0,-999.0,64,-99.99,,,0.00,Acu-Link.com,2013-08-24 03:18:00,
2013-08-23 22:33:00,72.3,59.4,30.12,South,180,0.0,-999.0,64,-99.99,,,0.00,Acu-Link.com,2013-08-24 03:33:00,
2013-08-23 22:48:00,71.8,59.4,30.12,ESE,112,0.0,-999.0,65,-99.99,,,0.00,Acu-Link.com,2013-08-24 03:48:00,
2013-08-23 23:04:00,71.4,59.0,30.12,SSE,157,0.0,-999.0,65,-99.99,,,0.00,Acu-Link.com,2013-08-24 04:04:00,
2013-08-23 23:19:00,71.2,58.8,30.12,SE,135,0.0,-999.0,65,-99.99,,,0.00,Acu-Link.com,2013-08-24 04:19:00,
2013-08-23 23:34:00,70.5,58.2,30.12,SE,135,0.0,-999.0,65,-99.99,,,0.00,Acu-Link.com,2013-08-24 04:34:00,
2013-08-23 23:50:00,69.8,57.9,30.12,ESE,112,0.0,-999.0,66,-99.99,,,0.00,Acu-Link.com,2013-08-24 04:50:00,